• Join FlightAware (Why Join?)
  • Login
  • US Flag 
11:46AM EDT


 

Airport Tracker/Info


-or-


 

Live Flight TrackerFlight Track Log ✈ TAM3377 ✈ 24-Oct-2013 ✈ SBVT / VIX - SBGR / GRU

Flight Track Log - Related Links

Times and Time Zones

All times are in EDT time to prevent confusion due to time zone crossing. See the TAM3377 flight status page for this flight to view local times or setup timezone preferences in your user account.

Time Position Orientation Groundspeed Altitude Reporting Facility
EDT Latitude Longitude Course Direction KTS MPH feet Rate Location/Type
10:05AM -20.2570 -40.2890 106° East 126 145  Level FlightAware
10:06AM -20.2610 -40.2740 106° East 126 145  Level FlightAware
10:06AM -20.2570 -40.2890 286° West 126 145  Level FlightAware
10:07AM -20.2610 -40.2750 107° East 126 145  Level FlightAware
10:09AM -20.2570 -40.2890 287° West 126 145  Level FlightAware
10:09AM -20.2610 -40.2740 106° East 126 145  Level FlightAware
10:10AM -20.2570 -40.2890 286° West 126 145  Level FlightAware
10:11AM -20.2610 -40.2750 107° East 126 145  Level FlightAware
10:12AM -20.2570 -40.2890 287° West 126 145 60 Level FlightAware
10:14AM -20.2610 -40.2740 106° East 126 145 60 Level FlightAware
10:14AM -20.2570 -40.2890 286° West 126 145 60 Level FlightAware
10:15AM -20.2610 -40.2750 107° East 126 145 60 Level FlightAware
10:16AM -20.2610 -40.2740 90° East 126 145 60 Level FlightAware
10:17AM -20.2610 -40.2760 270° West 126 145 60 Level FlightAware
10:17AM -20.2570 -40.2890 288° West 126 145 60 Level FlightAware
10:18AM -20.2610 -40.2740 106° East 126 145 60 Level FlightAware
10:18AM -20.2610 -40.2750 270° West 126 145 60 Level FlightAware
10:19AM -20.2570 -40.2890 287° West 126 145 60 Level FlightAware
10:22AM -20.3806 -40.5169 240° Southwest  Level Estimated
10:22AM -20.2610 -40.2750 240° Southwest 126 145  Level FlightAware
10:22AM -20.2570 -40.2890 287° West 126 145 120 Level FlightAware
10:23AM -20.2570 -40.2880 90° East 126 145 120 Level FlightAware
10:26AM -20.3634 -40.4842 240° Southwest  Level Estimated
10:27AM -20.4103 -40.5708 240° Southwest  Level Estimated
10:27AM -20.2580 -40.2890 240° Southwest 126 145  Level FlightAware
10:28AM -20.4572 -40.6575 240° Southwest  Level Estimated
10:28AM -20.2610 -40.2910 212° Southwest 126 145  Level FlightAware
10:29AM -20.2630 -40.2920 205° Southwest 126 145 480 Level FlightAware
10:29AM -20.2640 -40.2910 137° Southeast 126 145 540 Level FlightAware
10:30AM -20.2580 -40.2870 32° Northeast 126 145 1,020 Level FlightAware
10:31AM -20.2320 -40.2700 32° Northeast 157 181 1,200 1,500 Climbing FlightAware
10:31AM -20.1980 -40.2460 34° Northeast 222 255 2,200 1,980 Climbing FlightAware
10:32AM -20.1870 -40.2160 69° East 241 277 3,600 3,000 Climbing FlightAware
10:33AM -20.2350 -40.1810 146° Southeast 262 302 6,200 2,280 Climbing FlightAware
10:33AM -20.2840 -40.1730 171° South 292 336 7,400 2,220 Climbing FlightAware
10:34AM -20.3330 -40.1690 176° South 301 346 9,000 2,880 Climbing FlightAware
10:35AM -20.4300 -40.2290 210° Southwest 359 413 10,900 2,460 Climbing FlightAware
10:35AM -20.4750 -40.2620 214° Southwest 368 423 12,100 2,520 Climbing FlightAware
10:36AM -20.5450 -40.3110 213° Southwest 371 427 14,100 2,460 Climbing FlightAware
10:36AM -20.5990 -40.3500 214° Southwest 377 434 15,400 1,800 Climbing FlightAware
10:37AM -20.6760 -40.4050 214° Southwest 392 451 16,800 1,680 Climbing FlightAware
10:38AM -20.7330 -40.4460 214° Southwest 396 456 18,000 1,800 Climbing FlightAware
10:39AM -20.8110 -40.5010 213° Southwest 400 460 19,500 1,740 Climbing FlightAware
10:39AM -20.8580 -40.5360 215° Southwest 401 461 20,400 1,680 Climbing FlightAware
10:40AM -20.9360 -40.5950 215° Southwest 408 470 21,800 1,440 Climbing FlightAware
10:41AM -20.9890 -40.6380 217° Southwest 414 476 22,600 1,380 Climbing FlightAware
10:42AM -21.0540 -40.6920 218° Southwest 419 482 23,700 1,440 Climbing FlightAware
10:42AM -21.1010 -40.7300 217° Southwest 421 484 24,400 1,320 Climbing FlightAware
10:43AM -21.1890 -40.8030 218° Southwest 429 494 25,600 1,380 Climbing FlightAware
10:44AM -21.2540 -40.8560 217° Southwest 431 496 26,600 1,380 Climbing FlightAware
10:44AM -21.3140 -40.9050 217° Southwest 428 493 27,600 1,200 Climbing FlightAware
10:45AM -21.4010 -40.9760 217° Southwest 435 501 28,500 480 Climbing FlightAware
10:46AM -21.3940 -40.9710 34° Northeast 433 498 28,400 780 Descending FlightAware
10:47AM -21.6000 -41.1410 217° Southwest 456 525 30,100 1,020 Climbing FlightAware
10:48AM -21.6620 -41.1920 217° Southwest 461 531 30,500 840 Climbing FlightAware
10:48AM -21.7090 -41.2310 218° Southwest 461 531 31,100 1,200 Climbing FlightAware
10:49AM -21.7780 -41.2890 218° Southwest 458 527 31,900 1,440 Climbing FlightAware
10:50AM -21.8460 -41.3470 218° Southwest 449 517 33,000 1,500 Climbing FlightAware
10:50AM -21.9080 -41.3990 218° Southwest 442 509 33,900 1,140 Climbing FlightAware
10:51AM -21.9830 -41.4770 224° Southwest 442 509 34,800 780 Climbing FlightAware
10:52AM -22.0290 -41.5420 233° Southwest 444 511 35,100 780 Climbing FlightAware
10:53AM -22.0970 -41.6390 233° Southwest 441 507 36,000 540 Climbing FlightAware
10:53AM -22.1520 -41.7170 233° Southwest 437 503 36,000  Level FlightAware
10:54AM -22.1990 -41.7850 233° Southwest 441 507 36,000  Level FlightAware
10:55AM -22.2520 -41.8590 232° Southwest 440 506 36,000  Level FlightAware
10:55AM -22.2920 -41.9170 233° Southwest 441 507 36,000  Level FlightAware
10:56AM -22.3730 -42.0320 233° Southwest 442 509 36,000  Level FlightAware
10:57AM -22.4260 -42.1080 233° Southwest 441 507 36,000  Level FlightAware
10:58AM -22.4810 -42.1870 233° Southwest 441 507 36,000  Level FlightAware
10:59AM -22.5340 -42.2640 233° Southwest 441 507 36,000  Level FlightAware
10:59AM -22.5840 -42.3360 233° Southwest 440 506 36,000  Level FlightAware
11:00AM -22.6400 -42.4160 233° Southwest 438 504 36,000  Level FlightAware
11:01AM -22.6830 -42.4780 233° Southwest 438 504 36,000  Level FlightAware
11:01AM -22.7390 -42.5590 233° Southwest 438 504 36,000  Level FlightAware
11:02AM -22.7800 -42.6180 233° Southwest 440 506 36,000  Level FlightAware
11:02AM -22.8160 -42.6710 234° Southwest 441 507 36,000  Level FlightAware
11:03AM -22.8690 -42.7480 233° Southwest 441 507 36,000  Level FlightAware
11:04AM -22.9090 -42.8060 233° Southwest 439 505 36,000  Level FlightAware
11:04AM -22.9480 -42.8760 239° Southwest 439 505 36,000  Level FlightAware
11:05AM -22.9830 -42.9670 247° West 439 505 36,000  Level FlightAware
11:06AM -23.0070 -43.0740 256° West 439 505 36,000  Level FlightAware
11:07AM -23.0260 -43.1560 256° West 440 506 36,000  Level FlightAware
11:07AM -23.0490 -43.2610 257° West 441 507 36,000  Level FlightAware
11:08AM -23.0690 -43.3530 257° West 440 506 36,000  Level FlightAware
11:09AM -23.1020 -43.5080 257° West 439 505 36,000  Level FlightAware
11:10AM -23.1210 -43.5940 256° West 440 506 36,000  Level FlightAware
11:11AM -23.1380 -43.6750 257° West 441 507 36,000  Level FlightAware
11:11AM -23.1550 -43.7520 256° West 443 510 36,000  Level FlightAware
11:12AM -23.1740 -43.8400 257° West 447 514 36,000  Level FlightAware
11:13AM -23.2040 -43.9830 257° West 450 518 36,000  Level FlightAware
11:14AM -23.2200 -44.0600 257° West 451 519 36,000 60 Level FlightAware
11:14AM -23.2390 -44.1470 257° West 450 518 36,100  Climbing FlightAware
11:15AM -23.2550 -44.2250 257° West 449 517 36,000 -120 Descending FlightAware
11:15AM -23.2740 -44.3140 257° West 449 517 36,000  Level FlightAware
11:17AM -23.3050 -44.4610 257° West 450 518 36,000  Level FlightAware
11:17AM -23.3260 -44.5580 257° West 451 519 36,000  Level FlightAware
11:18AM -23.3420 -44.6370 258° West 452 520 36,000  Level FlightAware
11:19AM -23.3600 -44.7210 257° West 452 520 36,000  Level FlightAware
11:19AM -23.3730 -44.7840 257° West 450 518 36,000  Level FlightAware
11:20AM -23.3990 -44.9100 257° West 447 514 36,000 -300 Level FlightAware
11:21AM -23.4260 -45.0410 257° West 445 512 35,500 -1,200 Descending FlightAware
11:22AM -23.4450 -45.1290 257° West 447 514 34,000 -2,340 Descending FlightAware
11:22AM -23.4660 -45.2280 257° West 444 511 32,200 -2,400 Descending FlightAware
11:23AM -23.4840 -45.3140 257° West 438 504 30,800 -2,160 Descending FlightAware
11:24AM -23.5050 -45.4110 257° West 426 490 29,200 -2,100 Descending FlightAware
11:24AM -23.5200 -45.4830 257° West 418 481 28,000 -1,680 Descending FlightAware
11:25AM -23.5340 -45.5540 258° West 397 457 27,300 -1,080 Descending FlightAware
11:26AM -23.5490 -45.6290 258° West 369 425 26,600 -1,380 Descending FlightAware
11:26AM -23.5630 -45.7000 258° West 357 411 25,500 -1,920 Descending FlightAware
11:27AM -23.5740 -45.7530 257° West 354 407 24,500 -1,920 Descending FlightAware
11:27AM -23.5860 -45.8140 258° West 349 402 23,400 -1,620 Descending FlightAware
11:28AM -23.6000 -45.8800 257° West 337 388 22,500 -1,320 Descending FlightAware
11:29AM -23.6080 -45.9310 260° West 326 375 21,900 -1,440 Descending FlightAware
11:29AM -23.6160 -45.9870 261° West 322 371 21,000 -1,620 Descending FlightAware
11:30AM -23.6250 -46.0500 261° West 317 365 19,900 -1,680 Descending FlightAware
11:31AM -23.6360 -46.1300 261° West 318 366 18,500 -1,620 Descending FlightAware
11:31AM -23.6440 -46.1930 262° West 311 358 17,500 -1,500 Descending FlightAware
11:32AM -23.6530 -46.2540 261° West 305 351 16,500 -1,500 Descending FlightAware
11:33AM -23.6610 -46.3130 262° West 306 352 15,500 -1,500 Descending FlightAware
11:33AM -23.6640 -46.3450 264° West 306 352 15,000 -1,320 Descending FlightAware
11:34AM -23.6090 -46.4010 317° Northwest 289 333 13,800 -1,320 Descending FlightAware
11:35AM -23.5640 -46.4170 342° North 277 319 13,000 -1,320 Descending FlightAware
11:35AM -23.5170 -46.4350 341° North 271 312 12,200 -1,380 Descending FlightAware
11:36AM -23.4660 -46.4540 341° North 275 316 11,200 -1,380 Descending FlightAware
11:36AM -23.4230 -46.4700 341° North 268 308 10,500 -1,260 Descending FlightAware
11:37AM -23.3820 -46.4850 341° North 257 296 9,700 -1,440 Descending FlightAware
11:38AM -23.3480 -46.4970 342° North 253 291 9,000 -1,200 Descending FlightAware
11:38AM -23.3100 -46.4830 19° North 249 287 8,500 -1,140 Descending FlightAware
11:39AM -23.2950 -46.4460 66° East 251 289 7,700 -1,380 Descending FlightAware
11:39AM -23.2840 -46.4170 68° East 250 288 7,200 -1,140 Descending FlightAware
11:40AM -23.2730 -46.3610 78° East 241 277 6,400 -1,080 Descending FlightAware
11:41AM -23.2870 -46.3230 112° Southeast 237 273 5,700 -780 Descending FlightAware
11:41AM -23.3000 -46.2840 110° East 233 268 5,500 -300 Descending FlightAware
11:42AM -23.3150 -46.2520 117° Southeast 237 273 5,400 -300 Descending FlightAware
11:42AM -23.3310 -46.2460 161° South 231 266 5,300 -600 Descending FlightAware
11:43AM -23.3650 -46.2700 213° Southwest 218 251 4,900 -480 Descending FlightAware
11:43AM -23.3900 -46.3050 232° Southwest 176 203 4,700 -300 Descending FlightAware
11:44AM -23.3950 -46.3250 255° West 160 184 4,600 -600 Descending FlightAware
11:44AM -23.4030 -46.3560 254° West 150 173 4,100 -720 Descending FlightAware
11:45AM -23.4120 -46.3880 253° West 148 170 3,600 -780 Descending FlightAware
11:46AM -23.4220 -46.4250 254° West 151 174 2,900 -840 Descending FlightAware
11:47AM -23.4300 -46.4540 253° West 143 165 2,400 -480 Descending FlightAware
11:47AM -23.4340 -46.4720 256° West 143 165 2,400  Level FlightAware
11:55AM -23.4270 -46.4830 270° West -300 Descending FlightAware
11:59AM -23.4270 -46.4820 90° East  Level FlightAware
12:00PM -23.4270 -46.4830 270° West  Level FlightAware